METAR Data
IDs: Format: Raw Decoded Include TAF

Data at: 0739 UTC 03 Aug 2021

KAJO 030656Z AUTO 00000KT 10SM CLR 22/10 A2999 RMK AO2 SLP146 T02170100
KAJO 030556Z AUTO 00000KT 10SM CLR 22/09 A2998 RMK AO2 SLP146 6//// T02170089 10350 20217
KAJO 030456Z AUTO 10SM CLR 26/07 RMK AO2 SLPNO T02560072 $
KAJO 030356Z AUTO 10SM CLR 29/06 RMK AO2 SLPNO T02940056 $
KAJO 030256Z AUTO 31007KT 10SM CLR 29/09 A2995 RMK AO2 SLP133 T02940094 53005
KAJO 030156Z AUTO 27011G18KT 10SM CLR 33/06 A2993 RMK AO2 SLP126 T03280061
KAJO 030056Z AUTO 27013G18KT 10SM CLR 35/09 A2992 RMK AO2 SLP124 T03500094
KAJO 022356Z AUTO 28013G18KT 10SM CLR 35/11 A2993 RMK AO2 SLP127 T03500106 10378 20322 55010
KAJO 022256Z AUTO 30014KT 10SM CLR 37/11 A2993 RMK AO2 SLP125 T03670111
KAJO 022156Z AUTO 28014G18KT 10SM CLR 37/09 A2994 RMK AO2 SLP132 T03720094
KAJO 022056Z AUTO 27010G17KT 10SM CLR 37/10 A2996 RMK AO2 SLP139 T03720100 56024
KAJO 021956Z AUTO 27011KT 10SM CLR 37/10 A2998 RMK AO2 SLP146 T03670100
KAJO 021856Z AUTO 29006KT 10SM CLR 35/08 A3001 RMK AO2 SLP155 T03500078
KAJO 021756Z AUTO 29004KT 10SM CLR 32/09 A3004 RMK AO2 SLP163 6//// T03220094 10322 20133
KAJO 021656Z AUTO 00000KT 10SM CLR 28/11 A3005 RMK AO2 SLP170 T02830106
KAJO 021556Z AUTO 30003KT 10SM CLR 24/11 A3007 RMK AO2 SLP174 T02440111
KAJO 021456Z AUTO 10SM CLR 21/11 RMK AO2 SLPNO 6//// T02110111 $
KAJO 021356Z AUTO 00000KT 10SM CLR 17/11 A3006 RMK AO2 SLP173 T01670106
KAJO 021256Z AUTO 00000KT 10SM CLR 14/10 A3004 RMK AO2 SLP168 T01440100
KAJO 021156Z AUTO 00000KT 10SM CLR 15/11 A3003 RMK AO2 SLP163 6//// 7//// T01500106 10228 20139 55001
KAJO 021056Z AUTO 00000KT 10SM CLR 14/11 A3003 RMK AO2 SLP160 T01390106
KAJO 020956Z AUTO 00000KT 10SM CLR 16/11 A3002 RMK AO2 SLP158 T01610106
KAJO 020856Z AUTO 00000KT 10SM CLR 18/11 A3004 RMK AO2 SLP163 T01780106 58002
KAJO 020756Z AUTO 00000KT 10SM CLR 19/11 A3004 RMK AO2 SLP164 T01890111 403560150
KAJO 020656Z AUTO 36003KT 10SM CLR 19/11 A3004 RMK AO2 SLP164 T01940111
KAJO 020556Z AUTO 00000KT 10SM CLR 23/11 A3004 RMK AO2 SLP165 6//// T02280106 10333 20217
KAJO 020456Z AUTO 30003KT 10SM CLR 24/09 A3004 RMK AO2 SLP164 T02440094
KAJO 020356Z AUTO 34006KT 10SM CLR 27/09 A3001 RMK AO2 SLP155 T02670089
KAJO 020256Z AUTO 10SM CLR 28/09 RMK AO2 SLPNO T02780094 $
KAJO 020156Z AUTO 28011G17KT 10SM CLR 31/12 A2998 RMK AO2 SLP145 T03060122
KAJO 020056Z AUTO 27014G20KT 10SM CLR 32/11 A2997 RMK AO2 SLP139 T03220111
KAJO 012356Z AUTO 27013G20KT 10SM CLR 33/11 A2997 RMK AO2 SLP141 T03330106 10356 20294 58008
KAJO 012256Z AUTO 28013G18KT 10SM CLR 35/12 A2998 RMK AO2 SLP145 T03500117
KAJO 012156Z AUTO 28014G18KT 10SM CLR 35/11 A2999 RMK AO2 SLP148 T03500106
KAJO 012056Z AUTO 29013G20KT 10SM CLR 34/12 A3000 RMK AO2 SLP151 T03440122 56019
KAJO 011956Z AUTO 27011G16KT 10SM CLR 34/13 A3001 RMK AO2 SLP156 T03390128